EDLP/PAD METAR and TAF weather

Enter ICAO airport designator
Station Type Date Time Source
EDLP METAR 2021/01/15 20:50 UTC NOAA

EDLP 152050Z 35004KT 290V050 9999 OVC026 M02/M08 Q1028


Station Type Date Time Source
EDLP Decoded METAR 2021/01/15 20:50 UTC NOAA

Paderborn / Lippstadt, Germany (EDLP) 51-37N 008-37E
Jan 15, 2021 - 03:50 PM EST / 2021.01.15 2050 UTC
Wind: from the N (350 degrees) at 5 MPH (4 KT) (direction variable):0
Visibility: greater than 7 mile(s):0
Sky conditions: overcast
Temperature: 28 F (-2 C)
Windchill: 23 F (-5 C):1
Dew Point: 17 F (-8 C)
Relative Humidity: 63%
Pressure (altimeter): 30.36 in. Hg (1028 hPa)
ob: EDLP 152050Z 35004KT 290V050 9999 OVC026 M02/M08 Q1028
cycle: 21

Station Type Date Time Source
EDLP TAF 2021/01/15 21:55 UTC NOAA

TAF EDLP 152150Z 1521/1618 CNL

Example: see airport list